Time;durP1;ratioP1;P1;durP2;ratioP2;P2;SDS_P1;SDS_P2;PMS_P1;PMS_P2;Temp;Humidity;BMP_temperature;BMP_pressure;BME280_temperature;BME280_humidity;BME280_pressure;Samples;Min_cycle;Max_cycle;Signal;HPM_P1;HPM_P2
2024/01/26 00:01:30;;;;;;;8.43;2.70;;;;;;;6.01;47.93;95254.06;5026863;28;20309;-74
2024/01/26 00:03:57;;;;;;;7.77;3.00;;;;;;;6.10;47.67;95254.19;5015012;28;20234;-75
2024/01/26 00:06:23;;;;;;;9.70;2.97;;;;;;;6.19;47.19;95266.53;5031613;28;20259;-79
2024/01/26 00:08:49;;;;;;;7.83;2.80;;;;;;;6.01;48.18;95267.94;5013036;28;20222;-74
2024/01/26 00:11:16;;;;;;;8.13;3.07;;;;;;;6.08;47.82;95257.88;5000456;28;20197;-77
2024/01/26 00:13:42;;;;;;;9.77;3.53;;;;;;;5.87;47.62;95257.72;5013554;28;20234;-75
2024/01/26 00:16:07;;;;;;;5.27;2.50;;;;;;;6.10;47.74;95267.25;5025684;28;20439;-74
2024/01/26 00:18:33;;;;;;;8.50;3.00;;;;;;;6.11;47.83;95266.28;5015622;28;20223;-80
2024/01/26 00:20:59;;;;;;;7.60;2.97;;;;;;;5.94;47.99;95262.38;5026897;28;20226;-76
2024/01/26 00:23:25;;;;;;;8.17;2.87;;;;;;;5.99;48.07;95267.25;5013677;28;20199;-76
2024/01/26 00:25:50;;;;;;;7.07;3.60;;;;;;;5.91;48.07;95274.81;5013404;28;20222;-73
2024/01/26 00:28:16;;;;;;;7.67;3.20;;;;;;;5.89;48.16;95267.09;5011034;28;20225;-76
2024/01/26 00:30:41;;;;;;;7.23;3.03;;;;;;;5.86;48.27;95275.16;5010640;28;20239;-76
2024/01/26 00:33:07;;;;;;;7.83;2.83;;;;;;;5.84;48.14;95271.00;5011732;28;20229;-73
2024/01/26 00:35:33;;;;;;;7.37;2.93;;;;;;;5.97;47.97;95283.03;5026137;28;20213;-73
2024/01/26 00:37:58;;;;;;;6.07;2.90;;;;;;;5.86;48.19;95285.59;5017440;28;20194;-77
2024/01/26 00:40:24;;;;;;;7.30;3.17;;;;;;;5.90;48.00;95284.41;5012713;28;20230;-74
2024/01/26 00:42:49;;;;;;;6.40;2.60;;;;;;;5.87;47.72;95268.16;5011897;28;20255;-74
2024/01/26 00:45:15;;;;;;;6.33;2.80;;;;;;;5.77;48.04;95267.19;5026342;28;20227;-74
2024/01/26 00:47:41;;;;;;;8.57;2.50;;;;;;;5.88;47.86;95280.25;4995498;28;20215;-73
2024/01/26 00:50:06;;;;;;;5.87;2.50;;;;;;;5.81;47.83;95260.78;5012167;28;20198;-74
2024/01/26 00:52:32;;;;;;;8.03;2.70;;;;;;;5.84;47.91;95276.22;5027877;28;20281;-73
2024/01/26 00:54:58;;;;;;;8.03;2.60;;;;;;;5.90;47.98;95286.19;5010159;28;20217;-78
2024/01/26 00:57:23;;;;;;;9.10;3.10;;;;;;;5.69;47.88;95272.97;5011012;28;20219;-74
2024/01/26 00:59:49;;;;;;;8.40;2.83;;;;;;;5.89;47.63;95287.97;5019070;28;20222;-77
2024/01/26 01:02:14;;;;;;;6.40;2.40;;;;;;;5.73;47.86;95267.41;5009119;28;20203;-80
2024/01/26 01:04:40;;;;;;;7.00;2.80;;;;;;;5.87;47.43;95273.38;5012298;28;20238;-75
2024/01/26 01:07:06;;;;;;;4.40;1.87;;;;;;;5.66;47.67;95268.00;5011744;28;20230;-78
2024/01/26 01:09:32;;;;;;;4.43;1.90;;;;;;;5.76;47.52;95258.53;5011967;28;20230;-74
2024/01/26 01:11:57;;;;;;;6.73;2.23;;;;;;;5.67;47.50;95270.50;5026677;28;20214;-76
2024/01/26 01:14:23;;;;;;;8.07;2.50;;;;;;;5.44;47.70;95260.94;5026543;28;20218;-73
2024/01/26 01:16:50;;;;;;;12.53;3.47;;;;;;;5.40;47.95;95256.91;5011961;28;20250;-76
2024/01/26 01:19:16;;;;;;;6.33;2.30;;;;;;;5.29;48.14;95253.34;5009158;28;20219;-75
2024/01/26 01:21:41;;;;;;;6.73;2.60;;;;;;;5.28;48.54;95246.44;5027834;28;20227;-76
2024/01/26 01:24:07;;;;;;;4.30;2.20;;;;;;;5.30;48.22;95235.91;5010078;28;20223;-78
2024/01/26 01:26:32;;;;;;;5.87;2.10;;;;;;;5.40;48.05;95249.06;5023106;28;20203;-77
2024/01/26 01:28:58;;;;;;;6.17;2.57;;;;;;;5.28;48.00;95238.63;5018211;28;20182;-73
2024/01/26 01:31:24;;;;;;;6.50;2.37;;;;;;;5.24;48.71;95238.97;5007015;28;20299;-74
2024/01/26 01:33:49;;;;;;;6.43;2.57;;;;;;;5.00;49.04;95212.97;5026394;28;20229;-75
2024/01/26 01:36:15;;;;;;;7.43;2.67;;;;;;;5.16;48.60;95244.75;5029881;28;20229;-79
2024/01/26 01:38:41;;;;;;;5.70;2.20;;;;;;;5.13;48.72;95234.53;5018913;28;20190;-74
2024/01/26 01:41:06;;;;;;;10.80;2.97;;;;;;;5.17;48.51;95224.72;5015405;28;20193;-79
2024/01/26 01:43:31;;;;;;;6.20;2.30;;;;;;;5.06;49.17;95233.34;5015061;28;20242;-75
2024/01/26 01:45:57;;;;;;;6.17;2.40;;;;;;;5.08;49.34;95237.50;5018469;28;20230;-77
2024/01/26 01:48:23;;;;;;;6.63;2.30;;;;;;;5.00;49.12;95239.84;5030729;28;20226;-74
2024/01/26 01:50:49;;;;;;;8.30;2.30;;;;;;;4.96;49.53;95247.97;5013402;28;20222;-75
2024/01/26 01:53:14;;;;;;;5.27;2.30;;;;;;;4.98;49.28;95246.94;5029286;28;20265;-77
2024/01/26 01:55:42;;;;;;;6.27;2.70;;;;;;;5.06;49.28;95257.63;5030552;28;20302;-75
2024/01/26 01:58:08;;;;;;;5.20;2.13;;;;;;;4.96;49.28;95243.59;5013808;28;20226;-73
2024/01/26 02:00:34;;;;;;;10.70;2.60;;;;;;;4.95;49.79;95267.19;5012949;28;20230;-75
2024/01/26 02:02:59;;;;;;;5.23;2.17;;;;;;;4.84;50.28;95266.19;5013311;28;20233;-73
2024/01/26 02:05:25;;;;;;;8.03;2.33;;;;;;;4.87;50.11;95270.34;5013807;28;20215;-76
2024/01/26 02:07:51;;;;;;;9.20;3.00;;;;;;;4.97;49.61;95280.91;5028494;28;20237;-76
2024/01/26 02:10:18;;;;;;;6.57;2.63;;;;;;;4.88;49.89;95269.38;5013444;28;20245;-73
2024/01/26 02:12:43;;;;;;;5.47;1.93;;;;;;;4.90;49.86;95254.47;5014470;28;20226;-75
2024/01/26 02:15:10;;;;;;;7.73;2.90;;;;;;;4.89;49.79;95265.00;5013269;28;20236;-74
2024/01/26 02:17:36;;;;;;;8.47;2.30;;;;;;;4.90;50.21;95264.91;4997586;28;20580;-73
2024/01/26 02:20:06;;;;;;;7.00;2.50;;;;;;;4.97;49.78;95258.31;5014550;28;20225;-72
2024/01/26 02:22:32;;;;;;;7.73;2.67;;;;;;;4.92;50.04;95267.38;5012748;28;20317;-78
2024/01/26 02:24:58;;;;;;;6.50;2.47;;;;;;;5.02;49.60;95276.19;5016013;28;20243;-74
2024/01/26 02:27:24;;;;;;;6.20;1.93;;;;;;;4.90;49.36;95285.75;5010281;28;20215;-75
2024/01/26 02:29:49;;;;;;;8.13;2.37;;;;;;;4.95;48.88;95282.81;5027072;28;20230;-75
2024/01/26 02:32:15;;;;;;;7.03;2.37;;;;;;;5.02;48.83;95273.59;5013284;28;20255;-79
2024/01/26 02:34:41;;;;;;;4.73;1.97;;;;;;;4.97;48.92;95286.13;5010328;28;20243;-74
2024/01/26 02:37:07;;;;;;;7.10;2.33;;;;;;;5.06;48.93;95285.47;5028723;28;20230;-75
2024/01/26 02:39:35;;;;;;;5.60;2.20;;;;;;;5.02;48.89;95286.63;5013467;28;20309;-78
2024/01/26 02:42:00;;;;;;;8.93;2.00;;;;;;;5.06;48.85;95282.88;5016181;28;20305;-75
2024/01/26 02:44:26;;;;;;;5.13;2.00;;;;;;;5.17;48.73;95277.69;5016219;28;20283;-79
2024/01/26 02:46:51;;;;;;;5.30;2.33;;;;;;;5.17;48.30;95277.69;5014804;28;20310;-77
2024/01/26 02:49:17;;;;;;;6.40;2.00;;;;;;;5.23;48.29;95279.00;5029759;28;20233;-78
2024/01/26 02:51:42;;;;;;;5.77;2.23;;;;;;;5.13;47.91;95278.03;5013428;28;20218;-78
2024/01/26 02:54:10;;;;;;;3.70;2.03;;;;;;;5.22;47.86;95275.56;5014737;28;20301;-74
2024/01/26 02:56:36;;;;;;;3.37;2.00;;;;;;;5.29;47.77;95297.66;5014097;28;20193;-78
2024/01/26 02:59:01;;;;;;;6.63;2.20;;;;;;;5.13;48.31;95291.88;5014115;28;20269;-75
2024/01/26 03:01:27;;;;;;;5.43;2.27;;;;;;;5.08;48.46;95292.22;5027646;28;20268;-84
2024/01/26 03:03:53;;;;;;;5.87;1.97;;;;;;;5.20;48.41;95287.88;5016350;28;20222;-81
2024/01/26 03:06:18;;;;;;;5.63;1.70;;;;;;;5.21;48.07;95297.38;5015323;28;20231;-74
2024/01/26 03:08:44;;;;;;;4.73;2.00;;;;;;;5.28;47.81;95310.78;5013106;28;20191;-76
2024/01/26 03:11:12;;;;;;;5.77;1.77;;;;;;;5.35;47.95;95296.38;5014297;28;20258;-80
2024/01/26 03:13:37;;;;;;;3.37;1.70;;;;;;;5.34;47.87;95306.91;5013271;28;20254;-74
2024/01/26 03:16:03;;;;;;;4.80;2.17;;;;;;;5.23;48.20;95300.69;5012923;28;20282;-76
2024/01/26 03:18:28;;;;;;;4.17;1.90;;;;;;;5.10;48.31;95302.53;5008925;28;20219;-74
2024/01/26 03:20:53;;;;;;;5.30;2.73;;;;;;;5.21;48.08;95297.38;5014177;28;20219;-79
2024/01/26 03:23:19;;;;;;;5.23;2.10;;;;;;;5.24;48.23;95309.38;5009244;28;20191;-80
2024/01/26 03:25:44;;;;;;;8.00;2.33;;;;;;;5.22;48.33;95300.81;5029340;28;20223;-80
2024/01/26 03:28:11;;;;;;;6.40;2.10;;;;;;;5.21;48.51;95294.78;5014862;28;20294;-80
2024/01/26 03:30:38;;;;;;;4.30;1.93;;;;;;;5.19;48.88;95291.44;5014284;28;20223;-78
2024/01/26 03:33:04;;;;;;;3.87;2.10;;;;;;;5.17;48.75;95295.94;5013229;28;20219;-79
2024/01/26 03:35:29;;;;;;;6.57;2.33;;;;;;;5.18;49.01;95289.78;5013850;28;20187;-78
2024/01/26 03:37:55;;;;;;;6.23;2.47;;;;;;;5.17;48.86;95295.94;5030636;28;20190;-78
2024/01/26 03:40:21;;;;;;;6.37;2.37;;;;;;;5.27;48.62;95296.94;5026466;28;20222;-79
2024/01/26 03:42:46;;;;;;;6.43;2.60;;;;;;;5.06;49.16;95295.91;5016150;28;20234;-79
2024/01/26 03:45:12;;;;;;;4.73;1.53;;;;;;;5.19;48.92;95293.22;5019227;28;20230;-80
2024/01/26 03:47:38;;;;;;;6.43;2.00;;;;;;;5.16;49.00;95296.91;5024041;28;20302;-80
2024/01/26 03:50:05;;;;;;;8.70;1.90;;;;;;;5.09;48.92;95282.63;5021061;28;20183;-80
2024/01/26 03:52:31;;;;;;;6.67;2.10;;;;;;;5.18;48.91;95278.50;5014921;28;20231;-80
2024/01/26 03:54:57;;;;;;;6.80;2.13;;;;;;;5.29;48.82;95276.81;5016411;28;20218;-82
2024/01/26 03:57:23;;;;;;;5.67;2.17;;;;;;;5.31;48.45;95274.88;5012854;28;20223;-81
2024/01/26 03:59:48;;;;;;;5.57;2.17;;;;;;;5.18;48.73;95292.38;5010289;28;20253;-80
2024/01/26 04:02:13;;;;;;;6.60;2.10;;;;;;;5.20;48.72;95281.84;5015315;28;20183;-80
2024/01/26 04:04:39;;;;;;;4.93;2.00;;;;;;;5.27;48.16;95283.91;5030474;28;20222;-79
2024/01/26 04:07:05;;;;;;;7.33;2.27;;;;;;;5.27;48.54;95289.13;5027285;28;20219;-80
2024/01/26 04:09:30;;;;;;;5.30;2.23;;;;;;;5.09;48.39;95274.81;5018125;28;20250;-80
2024/01/26 04:11:56;;;;;;;3.93;2.20;;;;;;;5.18;48.45;95281.94;5014495;28;20227;-80
2024/01/26 04:14:21;;;;;;;6.73;2.57;;;;;;;5.22;48.31;95280.78;5013303;28;20196;-79
2024/01/26 04:16:46;;;;;;;8.23;2.23;;;;;;;5.21;48.17;95286.09;5026822;28;20233;-80
2024/01/26 04:19:12;;;;;;;2.90;1.80;;;;;;;5.21;48.11;95300.00;5010665;28;20222;-80
2024/01/26 04:21:37;;;;;;;6.30;1.90;;;;;;;5.14;48.30;95297.94;5009541;28;20249;-80
2024/01/26 04:24:03;;;;;;;6.10;2.10;;;;;;;5.25;48.03;95304.03;5012071;28;20219;-80
2024/01/26 04:26:29;;;;;;;4.47;1.73;;;;;;;5.23;48.21;95308.50;5025803;28;20281;-80
2024/01/26 04:28:54;;;;;;;4.23;1.90;;;;;;;5.28;47.69;95311.63;5032320;28;20183;-80
2024/01/26 04:31:22;;;;;;;5.37;2.23;;;;;;;5.19;48.18;95322.72;5030430;28;20223;-80
2024/01/26 04:33:48;;;;;;;9.33;2.70;;;;;;;5.26;47.99;95313.50;5014280;28;20227;-80
2024/01/26 04:36:13;;;;;;;7.17;2.07;;;;;;;5.32;47.82;95317.47;5010578;28;20225;-81
2024/01/26 04:38:39;;;;;;;6.20;2.63;;;;;;;5.15;47.92;95310.84;5014238;28;20217;-80
2024/01/26 04:41:04;;;;;;;5.90;2.03;;;;;;;5.15;48.05;95307.41;5007119;28;20179;-80
2024/01/26 04:43:29;;;;;;;5.20;1.90;;;;;;;5.17;47.91;95292.50;5013632;28;20245;-81
2024/01/26 04:45:55;;;;;;;6.77;1.97;;;;;;;5.21;47.91;95294.78;5011874;28;20318;-80
2024/01/26 04:48:21;;;;;;;7.73;1.93;;;;;;;5.08;48.16;95313.09;5015274;28;20219;-78
2024/01/26 04:50:47;;;;;;;4.03;1.80;;;;;;;5.09;47.85;95298.28;5021240;28;20222;-80
2024/01/26 04:53:12;;;;;;;5.37;2.40;;;;;;;5.24;47.81;95315.41;5022764;28;20210;-83
2024/01/26 04:55:38;;;;;;;5.40;2.00;;;;;;;5.01;48.67;95319.69;5015353;28;20310;-81
2024/01/26 04:58:04;;;;;;;6.50;1.97;;;;;;;5.08;48.76;95309.66;5031191;28;20234;-80
2024/01/26 05:00:30;;;;;;;4.90;2.20;;;;;;;5.03;48.58;95328.22;5015565;28;20218;-79
2024/01/26 05:02:55;;;;;;;4.90;1.87;;;;;;;5.14;48.21;95332.66;5013017;28;20252;-81
2024/01/26 05:05:21;;;;;;;4.43;1.70;;;;;;;5.13;47.86;95333.59;4993567;28;20228;-82
2024/01/26 05:07:46;;;;;;;6.07;2.27;;;;;;;5.12;48.17;95321.50;5014623;28;20324;-81
2024/01/26 05:10:12;;;;;;;6.53;2.20;;;;;;;5.18;48.13;95328.88;5019196;28;20278;-79
2024/01/26 05:12:38;;;;;;;5.40;2.27;;;;;;;4.98;48.55;95327.72;5014022;28;20225;-80
2024/01/26 05:15:05;;;;;;;5.10;2.37;;;;;;;5.06;48.29;95317.56;5007861;28;20216;-76
2024/01/26 05:17:31;;;;;;;6.60;2.30;;;;;;;5.03;48.60;95322.19;5011995;28;20194;-76
2024/01/26 05:19:56;;;;;;;5.67;2.13;;;;;;;5.09;48.23;95311.31;5029032;28;20282;-79
2024/01/26 05:22:22;;;;;;;5.40;2.00;;;;;;;5.11;48.75;95319.84;5027415;28;20276;-79
2024/01/26 05:24:47;;;;;;;4.83;2.00;;;;;;;4.95;48.97;95314.09;5013845;28;20222;-80
2024/01/26 05:27:13;;;;;;;7.20;2.53;;;;;;;4.86;49.43;95336.41;5031935;28;20253;-79
2024/01/26 05:29:38;;;;;;;6.67;2.50;;;;;;;4.99;48.93;95331.97;5011116;28;20186;-73
2024/01/26 05:32:05;;;;;;;4.40;2.30;;;;;;;4.77;49.14;95337.88;5015987;28;20190;-80
2024/01/26 05:34:30;;;;;;;7.20;2.33;;;;;;;4.73;49.20;95327.78;5007546;28;20223;-81
2024/01/26 05:36:56;;;;;;;5.43;2.10;;;;;;;4.69;49.48;95337.59;5011817;28;20310;-75
2024/01/26 05:39:21;;;;;;;6.17;2.90;;;;;;;4.76;49.31;95320.59;5031154;28;20230;-80
2024/01/26 05:41:47;;;;;;;7.43;2.40;;;;;;;4.80;48.67;95327.25;5028778;28;20223;-80
2024/01/26 05:44:12;;;;;;;6.70;2.20;;;;;;;4.82;49.03;95330.59;5019387;28;20287;-77
2024/01/26 05:46:38;;;;;;;5.90;2.67;;;;;;;4.74;48.76;95329.47;5007862;28;20226;-78
2024/01/26 05:49:04;;;;;;;4.87;2.20;;;;;;;4.68;48.80;95311.66;5013952;28;20230;-74
2024/01/26 05:51:29;;;;;;;7.53;2.30;;;;;;;4.77;48.40;95335.28;5016009;28;20229;-79
2024/01/26 05:53:55;;;;;;;7.27;2.03;;;;;;;4.76;48.70;95338.84;5028781;28;20222;-81
2024/01/26 05:56:21;;;;;;;8.83;2.43;;;;;;;4.68;49.00;95328.13;5010869;28;20271;-78
2024/01/26 05:58:47;;;;;;;5.03;2.20;;;;;;;4.75;48.94;95344.97;5012093;28;20238;-75
2024/01/26 06:01:12;;;;;;;8.13;2.60;;;;;;;4.73;48.63;95333.00;5009041;28;20289;-77
2024/01/26 06:03:38;;;;;;;8.30;2.80;;;;;;;4.70;48.89;95336.66;5010003;28;20313;-75
2024/01/26 06:06:03;;;;;;;3.63;2.10;;;;;;;4.69;48.75;95342.81;5006847;28;20300;-78
2024/01/26 06:08:29;;;;;;;7.33;2.23;;;;;;;4.64;48.83;95355.31;4991793;28;20226;-77
2024/01/26 06:10:58;;;;;;;6.47;1.97;;;;;;;4.68;48.74;95338.56;5014447;28;20265;-76
2024/01/26 06:13:23;;;;;;;4.70;2.30;;;;;;;4.61;49.47;95348.56;5022647;28;20226;-77
2024/01/26 06:15:53;;;;;;;7.93;2.50;;;;;;;4.66;49.23;95363.03;5008431;28;20222;-78
2024/01/26 06:18:18;;;;;;;7.57;2.43;;;;;;;4.61;48.89;95347.72;5011253;28;20277;-78
2024/01/26 06:20:44;;;;;;;4.60;2.70;;;;;;;4.58;49.31;95351.38;5017947;28;20198;-76
2024/01/26 06:23:09;;;;;;;7.37;2.50;;;;;;;4.62;49.11;95344.16;5015814;28;20218;-76
2024/01/26 06:25:35;;;;;;;9.83;2.50;;;;;;;4.58;49.34;95358.38;5010293;28;20227;-76
2024/01/26 06:28:00;;;;;;;3.93;1.80;;;;;;;4.55;49.26;95359.41;5011399;28;20225;-76
2024/01/26 06:30:26;;;;;;;6.30;2.53;;;;;;;4.71;49.34;95367.00;5013647;28;20238;-76
2024/01/26 06:32:51;;;;;;;6.43;2.60;;;;;;;4.81;48.71;95360.19;5011942;28;20226;-74
2024/01/26 06:35:17;;;;;;;6.03;2.20;;;;;;;4.53;49.44;95370.88;5012596;28;20186;-75
2024/01/26 06:37:43;;;;;;;7.33;2.80;;;;;;;4.59;49.38;95370.44;5011817;28;20247;-74
2024/01/26 06:40:10;;;;;;;6.63;2.50;;;;;;;4.67;49.00;95377.72;5013746;28;20265;-75
2024/01/26 06:42:40;;;;;;;4.97;1.93;;;;;;;4.89;48.72;95388.28;5012443;28;20243;-74
2024/01/26 06:45:13;;;;;;;3.67;2.00;;;;;;;4.78;48.56;95390.81;5023597;28;20309;-74
2024/01/26 06:47:39;;;;;;;5.17;2.30;;;;;;;4.80;48.80;95389.78;5012341;28;20195;-74
2024/01/26 06:50:05;;;;;;;6.57;2.00;;;;;;;4.90;48.73;95391.75;5012954;28;20187;-75
2024/01/26 06:52:31;;;;;;;4.73;2.30;;;;;;;4.95;48.14;95400.09;4995201;28;20325;-75
2024/01/26 06:54:57;;;;;;;6.13;2.37;;;;;;;4.90;48.42;95415.22;5012311;28;20218;-75
2024/01/26 06:57:22;;;;;;;5.10;1.80;;;;;;;4.90;48.13;95397.78;5011414;28;20289;-75
2024/01/26 06:59:48;;;;;;;4.37;1.90;;;;;;;4.97;48.13;95406.00;5006048;28;20227;-74
2024/01/26 07:02:13;;;;;;;6.47;2.43;;;;;;;5.14;47.99;95408.25;5015466;28;20175;-74
2024/01/26 07:04:39;;;;;;;6.83;2.20;;;;;;;5.13;47.67;95403.97;5023119;28;20315;-75
2024/01/26 07:07:04;;;;;;;5.23;1.80;;;;;;;5.29;47.39;95394.13;5008939;28;20234;-73
2024/01/26 07:09:30;;;;;;;7.23;2.60;;;;;;;5.31;47.25;95389.63;5024903;28;20233;-75
2024/01/26 07:11:57;;;;;;;6.17;2.13;;;;;;;5.25;47.03;95400.50;5012977;28;20226;-71
2024/01/26 07:14:23;;;;;;;3.43;1.90;;;;;;;5.17;46.89;95418.47;5016695;28;20199;-76
2024/01/26 07:16:49;;;;;;;4.17;1.87;;;;;;;5.09;47.42;95416.41;5012231;28;20211;-71
2024/01/26 07:19:14;;;;;;;4.77;2.23;;;;;;;5.13;47.30;95400.53;5011313;28;20228;-75
2024/01/26 07:21:40;;;;;;;5.23;2.10;;;;;;;5.24;46.91;95413.66;5028300;28;20265;-76
2024/01/26 07:24:06;;;;;;;8.13;1.90;;;;;;;5.28;46.29;95405.47;5017856;28;20265;-76
2024/01/26 07:26:31;;;;;;;6.43;2.23;;;;;;;5.43;46.29;95415.78;5006758;28;20260;-73
2024/01/26 07:28:57;;;;;;;4.00;1.93;;;;;;;5.42;46.04;95427.97;5012959;28;20210;-74
2024/01/26 07:31:23;;;;;;;9.87;2.20;;;;;;;5.52;46.08;95425.53;5009540;28;20228;-74
2024/01/26 07:33:48;;;;;;;4.90;2.30;;;;;;;5.44;46.09;95433.06;5012956;28;20222;-74
2024/01/26 07:36:14;;;;;;;7.07;2.27;;;;;;;5.62;45.62;95446.59;5026868;28;20227;-73
2024/01/26 07:38:39;;;;;;;6.20;1.90;;;;;;;5.56;45.81;95419.16;5026750;28;20213;-74
2024/01/26 07:41:05;;;;;;;3.97;1.90;;;;;;;5.67;45.17;95424.44;5014212;28;20186;-73
2024/01/26 07:43:30;;;;;;;5.67;1.90;;;;;;;5.66;45.37;95432.34;5010257;28;20238;-73
2024/01/26 07:45:55;;;;;;;3.73;1.80;;;;;;;5.61;45.41;95435.28;5010701;28;20229;-74
2024/01/26 07:48:21;;;;;;;4.93;1.97;;;;;;;5.52;45.75;95438.56;5011053;28;20238;-70
2024/01/26 07:50:46;;;;;;;4.77;1.90;;;;;;;5.83;44.81;95457.25;5013038;28;20217;-71
2024/01/26 07:53:12;;;;;;;7.07;2.50;;;;;;;5.76;45.23;95443.78;5011672;28;20185;-72
2024/01/26 07:55:38;;;;;;;7.57;2.20;;;;;;;5.95;44.75;95451.13;5011995;28;20211;-72
2024/01/26 07:58:03;;;;;;;6.90;2.20;;;;;;;5.72;45.22;95471.91;5014541;28;20219;-71
2024/01/26 08:00:29;;;;;;;3.63;1.87;;;;;;;5.74;45.07;95477.81;5006373;28;20215;-71
2024/01/26 08:02:54;;;;;;;3.93;1.90;;;;;;;5.82;44.61;95451.16;5009783;28;20246;-72
2024/01/26 08:05:20;;;;;;;8.53;2.33;;;;;;;5.87;45.00;95449.06;5009649;28;20223;-71
2024/01/26 08:07:46;;;;;;;5.90;1.80;;;;;;;5.89;44.55;95456.78;5012590;28;20217;-74
2024/01/26 08:10:12;;;;;;;4.47;2.07;;;;;;;6.01;44.36;95450.66;5012222;28;20207;-76
2024/01/26 08:12:38;;;;;;;5.17;1.70;;;;;;;5.98;44.60;95458.72;5026660;28;20226;-70
2024/01/26 08:15:05;;;;;;;3.70;1.90;;;;;;;5.98;44.77;95456.13;5026610;28;20267;-74
2024/01/26 08:17:31;;;;;;;6.17;2.17;;;;;;;6.13;44.30;95456.78;5011345;28;20202;-76
2024/01/26 08:20:01;;;;;;;4.30;1.87;;;;;;;6.15;44.57;95453.13;5013762;28;20187;-76
2024/01/26 08:22:26;;;;;;;2.13;1.40;;;;;;;6.23;44.43;95467.34;5012775;28;20222;-76
2024/01/26 08:24:52;;;;;;;4.93;1.60;;;;;;;6.09;44.30;95482.25;5028323;28;20357;-74
2024/01/26 08:27:18;;;;;;;5.70;2.10;;;;;;;5.89;45.00;95467.22;5012235;28;20222;-71
2024/01/26 08:29:43;;;;;;;4.63;2.07;;;;;;;6.09;44.79;95468.38;5014809;28;20280;-71
2024/01/26 08:32:09;;;;;;;3.67;1.50;;;;;;;6.14;44.77;95472.31;5013354;28;20193;-72
2024/01/26 08:34:36;;;;;;;3.37;1.57;;;;;;;6.26;44.33;95469.75;5011746;28;20226;-71
2024/01/26 08:37:01;;;;;;;5.33;1.70;;;;;;;6.27;44.47;95460.97;5011711;28;20226;-70
2024/01/26 08:39:27;;;;;;;5.37;2.00;;;;;;;6.23;44.50;95462.13;5031771;28;20233;-70
2024/01/26 08:41:53;;;;;;;4.50;1.93;;;;;;;6.34;44.55;95456.97;5020816;28;20237;-69
2024/01/26 08:44:18;;;;;;;5.03;1.70;;;;;;;6.35;44.85;95456.84;5028585;28;20316;-70
2024/01/26 08:46:44;;;;;;;5.67;2.27;;;;;;;6.39;44.93;95465.28;5010297;28;20233;-70
2024/01/26 08:49:10;;;;;;;6.50;2.40;;;;;;;6.32;44.69;95464.91;5027265;28;20229;-71
2024/01/26 08:51:35;;;;;;;5.03;2.20;;;;;;;6.50;44.39;95469.72;5006722;28;20225;-72
2024/01/26 08:54:01;;;;;;;6.33;2.23;;;;;;;6.60;44.13;95465.44;5010385;28;20229;-71
2024/01/26 08:56:26;;;;;;;5.00;2.10;;;;;;;6.33;44.15;95484.00;5008827;28;20211;-71
2024/01/26 08:58:53;;;;;;;4.37;2.40;;;;;;;6.27;44.27;95508.81;5013155;28;20201;-75
2024/01/26 09:01:19;;;;;;;4.53;1.50;;;;;;;6.24;44.67;95479.50;5010288;28;20242;-73
2024/01/26 09:03:45;;;;;;;4.70;1.97;;;;;;;6.00;44.90;95482.94;5026351;28;20266;-74
2024/01/26 09:06:10;;;;;;;5.50;1.93;;;;;;;5.98;45.20;95479.63;5013217;28;20230;-72
2024/01/26 09:08:36;;;;;;;3.43;1.87;;;;;;;5.89;45.53;95475.06;5013251;28;20187;-71
2024/01/26 09:11:01;;;;;;;5.10;2.07;;;;;;;5.85;45.32;95463.97;5004809;28;20253;-72
2024/01/26 09:13:26;;;;;;;6.10;2.07;;;;;;;5.74;45.59;95488.25;5010370;28;20219;-69
2024/01/26 09:15:52;;;;;;;5.10;2.17;;;;;;;5.70;45.98;95473.78;5012120;28;20214;-79
2024/01/26 09:18:17;;;;;;;7.00;2.10;;;;;;;5.93;45.90;95476.47;5010518;28;20218;-72
2024/01/26 09:20:48;;;;;;;4.53;2.10;;;;;;;6.13;45.43;95480.28;5009684;28;20190;-67
2024/01/26 09:23:13;;;;;;;5.07;2.00;;;;;;;6.11;45.08;95477.78;5011543;28;20183;-71
2024/01/26 09:25:39;;;;;;;7.10;2.13;;;;;;;6.26;44.40;95467.16;5025294;28;20230;-75
2024/01/26 09:28:04;;;;;;;5.07;2.27;;;;;;;6.08;45.27;95467.56;5017749;28;20305;-73
2024/01/26 09:30:30;;;;;;;6.10;2.20;;;;;;;6.41;44.38;95476.44;5009715;28;20273;-69
2024/01/26 09:32:56;;;;;;;8.03;2.03;;;;;;;6.52;44.33;95468.66;5008162;28;20214;-72
2024/01/26 09:35:21;;;;;;;3.80;1.90;;;;;;;6.54;44.39;95492.84;5017280;28;20175;-74
2024/01/26 09:37:47;;;;;;;5.87;1.70;;;;;;;6.66;43.85;95470.22;4994528;28;20219;-74
2024/01/26 09:40:13;;;;;;;5.80;1.97;;;;;;;6.53;44.25;95467.69;5012251;28;20224;-71
2024/01/26 09:42:38;;;;;;;4.27;1.93;;;;;;;6.64;44.03;95464.25;5009243;28;20273;-73
2024/01/26 09:45:04;;;;;;;4.37;1.67;;;;;;;6.63;44.11;95457.38;5012811;28;20230;-74
2024/01/26 09:47:34;;;;;;;7.93;2.60;;;;;;;6.66;44.29;95461.53;5010262;28;20183;-75
2024/01/26 09:50:02;;;;;;;4.80;2.30;;;;;;;6.71;44.02;95456.78;5010853;28;20190;-70
2024/01/26 09:52:29;;;;;;;4.33;1.97;;;;;;;7.03;43.36;95452.53;5007707;28;20214;-71
2024/01/26 09:54:55;;;;;;;8.23;2.17;;;;;;;6.96;43.36;95448.72;5018949;28;20246;-72
2024/01/26 09:57:22;;;;;;;8.13;1.90;;;;;;;6.84;42.76;95449.66;5009636;28;20440;-73
2024/01/26 09:59:50;;;;;;;6.10;2.37;;;;;;;6.76;43.42;95460.72;5016875;28;20210;-73
2024/01/26 10:02:17;;;;;;;6.07;2.30;;;;;;;6.82;43.39;95430.66;5019020;28;20182;-73
2024/01/26 10:04:42;;;;;;;5.73;2.37;;;;;;;6.83;43.56;95432.31;5011969;28;20221;-70
2024/01/26 10:07:08;;;;;;;11.87;2.50;;;;;;;6.88;43.35;95452.88;5013693;28;20223;-68
2024/01/26 10:09:35;;;;;;;5.83;2.30;;;;;;;7.01;42.87;95409.16;5031190;28;20214;-74
2024/01/26 10:12:01;;;;;;;8.33;2.73;;;;;;;7.18;42.65;95420.88;4997704;28;20247;-74
2024/01/26 10:14:26;;;;;;;5.87;2.37;;;;;;;7.07;42.76;95432.19;5014099;28;20194;-76
2024/01/26 10:16:59;;;;;;;7.77;2.50;;;;;;;6.84;42.83;95413.91;5030399;28;20178;-75
2024/01/26 10:19:25;;;;;;;5.30;2.40;;;;;;;6.90;42.80;95432.69;5016070;28;20233;-76
2024/01/26 10:21:55;;;;;;;3.57;1.70;;;;;;;7.05;42.73;95400.91;4999617;28;20218;-76
2024/01/26 10:24:23;;;;;;;4.70;1.83;;;;;;;7.14;42.32;95401.19;5027492;28;20623;-77
2024/01/26 10:26:55;;;;;;;5.67;2.27;;;;;;;7.07;42.50;95440.03;5010437;28;20231;-74
2024/01/26 10:29:22;;;;;;;4.77;2.20;;;;;;;6.91;42.38;95401.19;5012516;28;20205;-75
2024/01/26 10:31:50;;;;;;;6.73;2.20;;;;;;;7.00;42.33;95382.19;5014147;28;20219;-76
2024/01/26 10:34:17;;;;;;;6.73;2.17;;;;;;;7.00;42.41;95382.19;5002126;28;20269;-74
2024/01/26 10:36:45;;;;;;;6.03;2.37;;;;;;;7.12;42.29;95385.59;5026727;28;20297;-76
2024/01/26 10:39:28;;;;;;;6.00;2.27;;;;;;;7.42;42.14;95378.84;5013451;28;20305;-73
2024/01/26 10:42:03;;;;;;;4.87;1.60;;;;;;;7.46;40.79;95362.81;5013199;28;20284;-76
2024/01/26 10:44:30;;;;;;;3.63;2.00;;;;;;;7.59;40.61;95385.34;5011797;28;20189;-74
2024/01/26 10:46:58;;;;;;;6.43;2.30;;;;;;;7.72;40.39;95371.16;5023509;28;20257;-77
2024/01/26 10:49:25;;;;;;;3.43;1.80;;;;;;;7.54;40.00;95358.72;5014316;28;20222;-74
2024/01/26 10:51:54;;;;;;;4.43;2.23;;;;;;;7.44;40.15;95380.41;5011885;28;20438;-76
2024/01/26 10:54:24;;;;;;;7.93;2.47;;;;;;;7.41;40.20;95374.59;5011425;28;20226;-75
2024/01/26 10:56:49;;;;;;;4.47;2.10;;;;;;;7.46;40.20;95373.28;5018611;28;20219;-76
2024/01/26 10:59:17;;;;;;;6.83;1.90;;;;;;;7.41;40.05;95367.56;5014861;28;20190;-76
2024/01/26 11:01:44;;;;;;;4.20;2.00;;;;;;;7.24;40.29;95374.16;5014352;28;20251;-76
2024/01/26 11:04:11;;;;;;;5.13;2.00;;;;;;;7.53;40.03;95368.34;5027573;28;20219;-75
2024/01/26 11:06:39;;;;;;;3.20;1.90;;;;;;;7.57;38.36;95363.72;5022699;28;20231;-74
2024/01/26 11:09:08;;;;;;;4.87;2.10;;;;;;;7.72;38.49;95367.69;5014107;28;20226;-71
2024/01/26 11:11:38;;;;;;;6.70;2.57;;;;;;;7.80;39.10;95372.28;5014010;28;20197;-73
2024/01/26 11:14:05;;;;;;;5.97;2.43;;;;;;;7.74;38.88;95376.25;5012252;28;20282;-72
2024/01/26 11:16:42;;;;;;;7.50;2.53;;;;;;;7.64;39.43;95357.84;5029224;28;20275;-73
2024/01/26 11:19:08;;;;;;;2.90;1.90;;;;;;;7.60;39.88;95371.31;5011463;28;20226;-73
2024/01/26 11:21:46;;;;;;;4.20;2.00;;;;;;;7.78;40.20;95350.63;5013016;28;20290;-74
2024/01/26 11:24:14;;;;;;;5.67;2.40;;;;;;;7.63;40.10;95358.81;5012564;28;20328;-72
2024/01/26 11:26:54;;;;;;;7.20;2.47;;;;;;;7.71;40.35;95355.56;4996921;28;20305;-72
2024/01/26 11:29:19;;;;;;;3.43;2.30;;;;;;;7.70;40.41;95332.97;5024276;28;20268;-71
2024/01/26 11:31:45;;;;;;;5.93;2.53;;;;;;;7.76;39.34;95322.00;5011397;28;20234;-71
2024/01/26 11:34:20;;;;;;;6.07;2.03;;;;;;;8.09;38.18;95333.22;5009327;28;20276;-73
2024/01/26 11:36:46;;;;;;;5.87;1.90;;;;;;;8.18;38.02;95340.31;5014987;28;20313;-71